createdAt,value
2018-08-23T00:00:52.194Z,25.86
2018-08-23T00:03:27.769Z,25.85
2018-08-23T00:05:57.094Z,25.85
2018-08-23T00:08:26.000Z,25.85
2018-08-23T00:10:55.033Z,25.85
2018-08-23T00:13:23.881Z,25.86
2018-08-23T00:15:52.379Z,25.85
2018-08-23T00:18:20.854Z,25.84
2018-08-23T00:20:49.345Z,25.85
2018-08-23T00:23:17.846Z,25.84
2018-08-23T00:25:46.340Z,25.86
2018-08-23T00:28:14.821Z,25.84
2018-08-23T00:30:46.094Z,25.85
2018-08-23T00:33:14.587Z,25.85
2018-08-23T00:35:43.069Z,25.85
2018-08-23T00:38:11.568Z,25.84
2018-08-23T00:40:41.359Z,25.85
2018-08-23T00:43:10.996Z,25.84
2018-08-23T00:45:39.625Z,25.85
2018-08-23T00:48:08.223Z,25.84
2018-08-23T00:50:53.634Z,25.84
2018-08-23T00:53:22.109Z,25.84
2018-08-23T00:56:00.643Z,25.85
2018-08-23T00:58:29.125Z,25.85
2018-08-23T01:01:04.032Z,25.84
2018-08-23T01:03:35.217Z,25.84
2018-08-23T01:06:04.197Z,25.85
2018-08-23T01:08:34.287Z,25.84
2018-08-23T01:11:03.900Z,25.85
2018-08-23T01:13:32.386Z,25.85
2018-08-23T01:16:00.886Z,25.85
2018-08-23T01:18:29.374Z,25.86
2018-08-23T01:20:57.858Z,25.86
2018-08-23T01:23:26.369Z,25.87
2018-08-23T01:25:54.858Z,25.87
2018-08-23T01:28:23.343Z,25.86
2018-08-23T01:30:51.826Z,25.87
2018-08-23T01:33:22.303Z,25.87
2018-08-23T01:35:51.751Z,25.87
2018-08-23T01:38:20.263Z,25.87
2018-08-23T01:40:48.814Z,25.87
2018-08-23T01:43:17.295Z,25.88
2018-08-23T01:45:45.782Z,25.86
2018-08-23T01:48:14.295Z,25.87
2018-08-23T01:50:42.860Z,25.87
2018-08-23T01:53:11.399Z,25.88
2018-08-23T01:55:39.878Z,25.87
2018-08-23T01:58:08.405Z,25.88
2018-08-23T02:00:37.216Z,25.88
2018-08-23T02:03:05.883Z,25.88
2018-08-23T02:05:37.830Z,25.88
2018-08-23T02:08:06.385Z,25.89
2018-08-23T02:10:34.875Z,25.64
2018-08-23T02:13:03.447Z,25.89
2018-08-23T02:15:42.065Z,25.89
2018-08-23T02:18:10.629Z,25.89
2018-08-23T02:20:39.119Z,25.89
2018-08-23T02:23:07.697Z,25.89
2018-08-23T02:25:36.177Z,25.90
2018-08-23T02:28:08.361Z,25.89
2018-08-23T02:30:48.559Z,25.89
2018-08-23T02:33:17.583Z,25.90
2018-08-23T02:35:59.150Z,25.89
2018-08-23T02:38:29.040Z,25.90
2018-08-23T02:40:57.632Z,25.89
2018-08-23T02:43:26.129Z,25.90
2018-08-23T02:45:55.258Z,25.90
2018-08-23T02:48:24.610Z,25.90
2018-08-23T02:50:53.716Z,25.90
2018-08-23T02:53:33.430Z,25.90
2018-08-23T02:56:06.194Z,25.90
2018-08-23T02:58:39.918Z,25.90
2018-08-23T03:01:08.399Z,25.90
2018-08-23T03:03:37.065Z,25.90
2018-08-23T03:06:05.559Z,25.92
2018-08-23T03:08:41.783Z,25.90
2018-08-23T03:11:10.271Z,25.91
2018-08-23T03:13:43.847Z,25.89
2018-08-23T03:16:12.804Z,25.82
2018-08-23T03:18:41.286Z,25.77
2018-08-23T03:21:09.803Z,25.69
2018-08-23T03:23:39.524Z,25.62
2018-08-23T03:26:08.034Z,25.51
2018-08-23T03:28:37.723Z,25.45
2018-08-23T03:31:07.437Z,25.36
2018-08-23T03:33:36.333Z,25.33
2018-08-23T03:36:04.847Z,25.32
2018-08-23T03:38:33.334Z,25.34
2018-08-23T03:41:03.169Z,25.37
2018-08-23T03:43:31.666Z,25.40
2018-08-23T03:46:00.766Z,25.43
2018-08-23T03:48:35.546Z,25.48
2018-08-23T03:51:04.038Z,25.51
2018-08-23T03:53:45.435Z,25.54
2018-08-23T03:56:13.990Z,25.60
2018-08-23T03:58:42.572Z,25.62
2018-08-23T04:01:13.675Z,25.64
2018-08-23T04:03:42.476Z,25.44
2018-08-23T04:06:23.915Z,25.69
2018-08-23T04:08:52.418Z,25.73
2018-08-23T04:11:20.914Z,25.76
2018-08-23T04:13:50.113Z,25.76
2018-08-23T04:16:28.823Z,25.76
2018-08-23T04:18:57.716Z,25.79
2018-08-23T04:21:26.811Z,25.81
2018-08-23T04:23:55.436Z,25.82
2018-08-23T04:26:25.036Z,25.83
2018-08-23T04:28:53.526Z,25.83
2018-08-23T04:31:22.061Z,25.85
2018-08-23T04:33:50.588Z,25.85
2018-08-23T04:36:27.923Z,25.85
2018-08-23T04:39:06.164Z,25.87
2018-08-23T04:41:34.740Z,25.87
2018-08-23T04:44:09.653Z,25.88
2018-08-23T04:46:38.162Z,25.88
2018-08-23T04:49:07.743Z,25.88
2018-08-23T04:51:37.399Z,25.89
2018-08-23T04:54:06.247Z,25.90
2018-08-23T04:56:34.742Z,25.90
2018-08-23T04:59:03.327Z,25.92
2018-08-23T05:01:31.838Z,25.92
2018-08-23T05:04:00.425Z,25.93
2018-08-23T05:06:28.898Z,25.93
2018-08-23T05:08:57.395Z,25.94
2018-08-23T05:11:25.932Z,25.94
2018-08-23T05:13:54.468Z,25.94
2018-08-23T05:16:22.968Z,25.95
2018-08-23T05:18:51.537Z,25.95
2018-08-23T05:21:20.043Z,25.96
2018-08-23T05:23:48.610Z,25.96
2018-08-23T05:26:18.400Z,25.96
2018-08-23T05:28:59.374Z,25.97
2018-08-23T05:31:29.135Z,25.98
2018-08-23T05:33:59.998Z,25.98
2018-08-23T05:36:28.513Z,25.98
2018-08-23T05:38:57.073Z,25.99
2018-08-23T05:41:25.582Z,25.99
2018-08-23T05:44:12.477Z,26.00
2018-08-23T05:46:59.643Z,26.01
2018-08-23T05:49:28.341Z,26.02
2018-08-23T05:51:58.455Z,26.02
2018-08-23T05:54:26.955Z,26.02
2018-08-23T05:56:55.476Z,26.02
2018-08-23T05:59:24.526Z,26.03
2018-08-23T06:01:53.061Z,26.06
2018-08-23T06:04:32.765Z,26.06
2018-08-23T06:07:01.309Z,26.05
2018-08-23T06:09:29.931Z,26.06
2018-08-23T06:11:58.455Z,26.07
2018-08-23T06:14:27.095Z,26.07
2018-08-23T06:16:57.114Z,26.07
2018-08-23T06:19:26.302Z,26.08
2018-08-23T06:21:54.979Z,26.08
2018-08-23T06:24:27.550Z,26.08
2018-08-23T06:26:56.088Z,26.10
2018-08-23T06:29:32.649Z,26.10
2018-08-23T06:32:10.379Z,26.11
2018-08-23T06:34:55.565Z,26.11
2018-08-23T06:37:24.174Z,26.11
2018-08-23T06:39:52.678Z,26.11
2018-08-23T06:42:25.640Z,26.10
2018-08-23T06:44:54.871Z,26.11
2018-08-23T06:47:24.841Z,26.12
2018-08-23T06:49:54.138Z,26.14
2018-08-23T06:52:42.779Z,26.14
2018-08-23T06:55:19.580Z,26.14
2018-08-23T06:57:49.674Z,26.14
2018-08-23T07:00:23.452Z,26.14
2018-08-23T07:02:52.009Z,26.15
2018-08-23T07:05:20.851Z,26.15
2018-08-23T07:07:49.560Z,26.18
2018-08-23T07:10:18.072Z,26.19
2018-08-23T07:12:46.599Z,26.20
2018-08-23T07:15:15.142Z,26.23
2018-08-23T07:17:43.748Z,26.24
2018-08-23T07:20:16.392Z,26.26
2018-08-23T07:22:45.169Z,26.28
2018-08-23T07:25:16.199Z,26.30
2018-08-23T07:27:44.706Z,26.31
2018-08-23T07:30:18.444Z,26.33
2018-08-23T07:32:48.081Z,26.34
2018-08-23T07:35:18.004Z,26.37
2018-08-23T07:37:48.854Z,26.38
2018-08-23T07:40:19.497Z,26.40
2018-08-23T07:42:49.187Z,26.41
2018-08-23T07:45:17.735Z,26.41
2018-08-23T07:47:54.803Z,26.44
2018-08-23T07:50:23.361Z,26.45
2018-08-23T07:52:53.249Z,26.47
2018-08-23T07:55:21.698Z,26.49
2018-08-23T07:57:50.195Z,26.50
2018-08-23T08:00:41.057Z,26.52
2018-08-23T08:03:10.717Z,26.56
2018-08-23T08:05:40.847Z,26.56
2018-08-23T08:08:10.359Z,26.60
2018-08-23T08:10:42.351Z,26.61
2018-08-23T08:13:10.890Z,26.63
2018-08-23T08:15:39.430Z,26.64
2018-08-23T08:18:16.840Z,26.67
2018-08-23T08:21:04.982Z,26.68
2018-08-23T08:23:33.925Z,26.71
2018-08-23T08:26:02.429Z,26.72
2018-08-23T08:28:30.951Z,26.73
2018-08-23T08:31:02.879Z,26.73
2018-08-23T08:33:35.984Z,26.74
2018-08-23T08:36:05.340Z,26.72
2018-08-23T08:38:34.462Z,26.72
2018-08-23T08:41:03.008Z,26.69
2018-08-23T08:43:31.517Z,26.70
2018-08-23T08:46:00.605Z,26.68
2018-08-23T08:48:32.351Z,26.67
2018-08-23T08:51:17.688Z,26.68
2018-08-23T08:53:46.722Z,26.66
2018-08-23T08:56:15.360Z,26.66
2018-08-23T08:58:44.039Z,26.64
2018-08-23T09:01:12.526Z,26.63
2018-08-23T09:03:41.075Z,26.63
2018-08-23T09:06:10.866Z,26.64
2018-08-23T09:08:39.770Z,26.65
2018-08-23T09:11:08.390Z,26.65
2018-08-23T09:13:42.318Z,26.64
2018-08-23T09:16:11.752Z,26.64
2018-08-23T09:18:43.395Z,26.66
2018-08-23T09:21:11.860Z,26.65
2018-08-23T09:23:40.454Z,26.67
2018-08-23T09:26:08.952Z,26.68
2018-08-23T09:28:37.446Z,26.72
2018-08-23T09:31:06.086Z,26.73
2018-08-23T09:33:34.647Z,26.76
2018-08-23T09:36:03.131Z,26.77
2018-08-23T09:38:31.643Z,26.78
2018-08-23T09:41:00.152Z,26.76
2018-08-23T09:43:28.638Z,26.69
2018-08-23T09:45:57.118Z,26.74
2018-08-23T09:48:25.628Z,26.73
2018-08-23T09:50:54.186Z,26.74
2018-08-23T09:53:25.740Z,26.74
2018-08-23T09:55:56.491Z,26.74
2018-08-23T09:58:30.236Z,26.74
2018-08-23T10:01:04.103Z,26.74
2018-08-23T10:03:37.808Z,26.72
2018-08-23T10:06:11.638Z,26.74
2018-08-23T10:08:45.352Z,26.74
2018-08-23T10:11:19.503Z,26.76
2018-08-23T10:13:53.218Z,26.81
2018-08-23T10:16:27.030Z,26.60
2018-08-23T10:18:57.543Z,26.87
2018-08-23T10:21:31.243Z,26.84
2018-08-23T10:24:06.694Z,26.93
2018-08-23T10:26:35.284Z,26.99
2018-08-23T10:29:03.765Z,27.00
2018-08-23T10:31:32.270Z,27.03
2018-08-23T10:34:00.782Z,27.05
2018-08-23T10:36:29.287Z,27.09
2018-08-23T10:38:57.824Z,27.12
2018-08-23T10:41:26.334Z,27.16
2018-08-23T10:43:54.858Z,27.19
2018-08-23T10:46:23.362Z,27.23
2018-08-23T10:48:51.888Z,27.26
2018-08-23T10:51:20.409Z,27.30
2018-08-23T10:53:48.962Z,27.33
2018-08-23T10:56:17.445Z,27.36
2018-08-23T10:58:45.987Z,27.40
2018-08-23T11:01:14.514Z,27.39
2018-08-23T11:03:43.133Z,27.40
2018-08-23T11:06:11.636Z,27.43
2018-08-23T11:08:40.187Z,27.46
2018-08-23T11:11:14.119Z,27.47
2018-08-23T11:13:47.687Z,27.47
2018-08-23T11:16:21.489Z,27.49
2018-08-23T11:18:55.148Z,27.50
2018-08-23T11:21:23.695Z,27.54
2018-08-23T11:23:52.177Z,27.56
2018-08-23T11:26:25.084Z,27.57
2018-08-23T11:28:53.615Z,27.58
2018-08-23T11:31:27.259Z,27.60
2018-08-23T11:33:55.764Z,27.64
2018-08-23T11:36:24.298Z,27.67
2018-08-23T11:38:52.835Z,27.71
2018-08-23T11:41:21.361Z,27.73
2018-08-23T11:43:49.903Z,27.76
2018-08-23T11:46:20.696Z,27.77
2018-08-23T11:48:49.678Z,27.75
2018-08-23T11:51:18.893Z,27.83
2018-08-23T11:53:47.882Z,27.86
2018-08-23T11:56:16.411Z,27.79
2018-08-23T11:58:44.899Z,27.87
2018-08-23T12:01:14.830Z,27.90
2018-08-23T12:03:43.623Z,27.91
2018-08-23T12:06:13.222Z,27.93
2018-08-23T12:08:42.036Z,27.94
2018-08-23T12:11:10.572Z,27.94
2018-08-23T12:13:39.384Z,27.95
2018-08-23T12:16:10.436Z,27.94
2018-08-23T12:18:39.459Z,27.95
2018-08-23T12:21:08.201Z,27.95
2018-08-23T12:23:36.855Z,27.97
2018-08-23T12:26:05.534Z,27.97
2018-08-23T12:28:39.223Z,27.94
2018-08-23T12:31:07.723Z,27.97
2018-08-23T12:33:36.267Z,27.95
2018-08-23T12:36:08.107Z,27.93
2018-08-23T12:38:41.835Z,27.92
2018-08-23T12:41:15.548Z,27.92
2018-08-23T12:43:45.955Z,27.93
2018-08-23T12:46:14.664Z,27.87
2018-08-23T12:48:43.539Z,27.87
2018-08-23T12:51:12.032Z,27.88
2018-08-23T12:53:40.549Z,27.93
2018-08-23T12:56:09.047Z,27.93
2018-08-23T12:58:37.529Z,27.92
2018-08-23T13:01:06.014Z,27.93
2018-08-23T13:03:34.558Z,27.92
2018-08-23T13:06:03.145Z,27.86
2018-08-23T13:08:31.578Z,27.92
2018-08-23T13:11:00.142Z,27.92
2018-08-23T13:13:28.600Z,27.93
2018-08-23T13:15:57.073Z,27.93
2018-08-23T13:18:25.561Z,27.93
2018-08-23T13:20:54.062Z,27.91
2018-08-23T13:23:22.567Z,27.92
2018-08-23T13:25:54.908Z,27.93
2018-08-23T13:28:23.958Z,27.92
2018-08-23T13:30:52.737Z,27.91
2018-08-23T13:33:21.367Z,27.93
2018-08-23T13:35:50.119Z,27.93
2018-08-23T13:38:19.109Z,27.92
2018-08-23T13:40:47.672Z,27.90
2018-08-23T13:43:16.177Z,27.93
2018-08-23T13:45:44.867Z,27.92
2018-08-23T13:48:13.369Z,27.90
2018-08-23T13:50:41.896Z,27.89
2018-08-23T13:53:10.416Z,27.90
2018-08-23T13:55:38.926Z,27.87
2018-08-23T13:58:07.406Z,27.91
2018-08-23T14:00:41.714Z,27.90
2018-08-23T14:03:11.071Z,27.90
2018-08-23T14:05:40.624Z,27.87
2018-08-23T14:08:09.450Z,27.90
2018-08-23T14:10:37.953Z,27.89
2018-08-23T14:13:06.472Z,27.86
2018-08-23T14:15:40.216Z,27.87
2018-08-23T14:18:08.711Z,27.85
2018-08-23T14:20:37.267Z,27.82
2018-08-23T14:23:05.755Z,27.82
2018-08-23T14:25:34.280Z,27.80
2018-08-23T14:28:02.794Z,27.80
2018-08-23T14:30:31.275Z,27.73
2018-08-23T14:32:59.809Z,27.72
2018-08-23T14:35:28.314Z,27.76
2018-08-23T14:37:56.848Z,27.74
2018-08-23T14:40:25.379Z,27.73
2018-08-23T14:42:53.915Z,27.71
2018-08-23T14:45:27.688Z,27.69
2018-08-23T14:48:01.403Z,27.67
2018-08-23T14:50:29.953Z,27.63
2018-08-23T14:52:58.619Z,27.60
2018-08-23T14:55:32.257Z,27.63
2018-08-23T14:58:00.910Z,27.60
2018-08-23T15:00:29.479Z,27.61
2018-08-23T15:02:57.974Z,27.61
2018-08-23T15:05:26.495Z,27.58
2018-08-23T15:07:55.044Z,27.56
2018-08-23T15:10:23.524Z,27.56
2018-08-23T15:12:52.067Z,27.54
2018-08-23T15:15:24.702Z,27.55
2018-08-23T15:17:53.203Z,27.55
2018-08-23T15:20:21.678Z,27.54
2018-08-23T15:22:50.174Z,27.56
2018-08-23T15:25:18.754Z,27.57
2018-08-23T15:27:47.258Z,27.45
2018-08-23T15:30:15.750Z,27.52
2018-08-23T15:32:44.269Z,27.51
2018-08-23T15:35:13.421Z,27.52
2018-08-23T15:37:41.933Z,27.48
2018-08-23T15:40:10.427Z,27.46
2018-08-23T15:42:39.052Z,27.50
2018-08-23T15:45:07.607Z,27.48
2018-08-23T15:47:36.121Z,27.49
2018-08-23T15:50:04.870Z,27.46
2018-08-23T15:52:33.392Z,27.44
2018-08-23T15:55:01.960Z,27.44
2018-08-23T15:57:30.467Z,27.43
2018-08-23T15:59:58.974Z,27.43
2018-08-23T16:02:27.479Z,27.43
2018-08-23T16:04:56.235Z,27.44
2018-08-23T16:07:24.737Z,27.44
2018-08-23T16:09:53.283Z,27.44
2018-08-23T16:12:21.922Z,27.46
2018-08-23T16:14:50.429Z,27.49
2018-08-23T16:17:24.210Z,27.47
2018-08-23T16:19:57.999Z,27.44
2018-08-23T16:22:26.486Z,27.48
2018-08-23T16:24:55.009Z,27.48
2018-08-23T16:27:23.546Z,27.46
2018-08-23T16:29:53.140Z,27.46
2018-08-23T16:32:26.885Z,27.45
2018-08-23T16:34:55.415Z,27.46
2018-08-23T16:37:23.990Z,27.47
2018-08-23T16:39:52.496Z,27.47
2018-08-23T16:42:20.992Z,27.46
2018-08-23T16:44:49.481Z,27.46
2018-08-23T16:47:18.130Z,27.44
2018-08-23T16:49:46.632Z,27.37
2018-08-23T16:52:17.376Z,27.39
2018-08-23T16:54:46.950Z,27.37
2018-08-23T16:57:15.471Z,27.36
2018-08-23T16:59:44.019Z,27.35
2018-08-23T17:02:12.523Z,27.32
2018-08-23T17:04:42.788Z,27.31
2018-08-23T17:07:11.680Z,27.29
2018-08-23T17:09:40.198Z,27.27
2018-08-23T17:12:08.986Z,27.25
2018-08-23T17:14:37.567Z,27.23
2018-08-23T17:17:11.305Z,27.16
2018-08-23T17:19:39.854Z,27.23
2018-08-23T17:22:08.412Z,27.23
2018-08-23T17:24:37.019Z,27.21
2018-08-23T17:27:05.483Z,27.19
2018-08-23T17:29:34.015Z,27.17
2018-08-23T17:32:02.817Z,27.18
2018-08-23T17:34:31.360Z,27.18
2018-08-23T17:36:59.871Z,27.17
2018-08-23T17:39:28.590Z,27.18
2018-08-23T17:41:57.094Z,27.17
2018-08-23T17:44:25.632Z,27.17
2018-08-23T17:46:54.132Z,27.15
2018-08-23T17:49:22.648Z,27.16
2018-08-23T17:51:51.236Z,27.16
2018-08-23T17:54:19.866Z,27.15
2018-08-23T17:56:48.406Z,27.14
2018-08-23T17:59:16.954Z,27.14
2018-08-23T18:01:45.488Z,27.15
2018-08-23T18:04:13.975Z,27.14
2018-08-23T18:06:42.529Z,27.14
2018-08-23T18:09:12.804Z,27.11
2018-08-23T18:11:41.572Z,27.14
2018-08-23T18:14:10.263Z,27.13
2018-08-23T18:16:43.969Z,27.11
2018-08-23T18:19:12.765Z,27.10
2018-08-23T18:21:42.300Z,27.11
2018-08-23T18:24:10.782Z,27.10
2018-08-23T18:26:39.338Z,27.08
2018-08-23T18:29:07.838Z,27.07
2018-08-23T18:31:36.686Z,27.07
2018-08-23T18:34:05.588Z,26.96
2018-08-23T18:36:34.088Z,27.05
2018-08-23T18:39:02.662Z,27.02
2018-08-23T18:41:31.168Z,27.01
2018-08-23T18:43:59.669Z,26.99
2018-08-23T18:46:28.164Z,27.00
2018-08-23T18:48:59.833Z,26.98
2018-08-23T18:51:30.464Z,26.97
2018-08-23T18:53:59.788Z,26.96
2018-08-23T18:56:29.171Z,26.74
2018-08-23T18:58:58.022Z,26.96
2018-08-23T19:01:26.495Z,26.96
2018-08-23T19:03:54.996Z,26.98
2018-08-23T19:06:27.676Z,26.99
2018-08-23T19:08:56.175Z,26.98
2018-08-23T19:11:24.987Z,26.98
2018-08-23T19:13:53.530Z,27.00
2018-08-23T19:16:27.929Z,26.99
2018-08-23T19:18:56.604Z,27.01
2018-08-23T19:21:25.129Z,27.00
2018-08-23T19:23:53.611Z,26.99
2018-08-23T19:26:22.448Z,27.00
2018-08-23T19:28:50.952Z,27.00
2018-08-23T19:31:19.564Z,27.00
2018-08-23T19:33:48.036Z,27.01
2018-08-23T19:36:16.529Z,27.00
2018-08-23T19:38:45.017Z,27.00
2018-08-23T19:41:13.551Z,26.99
2018-08-23T19:43:42.039Z,27.00
2018-08-23T19:46:17.798Z,27.00
2018-08-23T19:48:47.836Z,26.99
2018-08-23T19:51:16.366Z,26.98
2018-08-23T19:53:44.928Z,26.99
2018-08-23T19:56:13.403Z,26.98
2018-08-23T19:58:41.920Z,26.98
2018-08-23T20:01:10.411Z,26.98
2018-08-23T20:03:38.951Z,26.97
2018-08-23T20:06:07.567Z,26.97
2018-08-23T20:08:36.092Z,26.96
2018-08-23T20:11:04.610Z,26.97
2018-08-23T20:13:33.124Z,26.96
2018-08-23T20:16:01.628Z,26.97
2018-08-23T20:18:30.125Z,26.97
2018-08-23T20:20:58.744Z,26.97
2018-08-23T20:23:27.299Z,26.96
2018-08-23T20:25:55.799Z,26.97
2018-08-23T20:28:24.385Z,26.96
2018-08-23T20:30:53.913Z,26.96
2018-08-23T20:33:22.423Z,26.97
2018-08-23T20:35:51.016Z,26.95
2018-08-23T20:38:19.507Z,26.96
2018-08-23T20:40:48.054Z,26.94
2018-08-23T20:43:16.560Z,26.94
2018-08-23T20:45:45.215Z,26.93
2018-08-23T20:48:13.723Z,26.92
2018-08-23T20:50:42.222Z,26.86
2018-08-23T20:53:10.785Z,26.94
2018-08-23T20:55:39.352Z,26.93
2018-08-23T20:58:07.866Z,26.94
2018-08-23T21:00:36.428Z,26.92
2018-08-23T21:03:04.931Z,26.89
2018-08-23T21:05:33.451Z,26.89
2018-08-23T21:08:01.988Z,26.89
2018-08-23T21:10:30.499Z,26.90
2018-08-23T21:12:59.002Z,26.89
2018-08-23T21:15:27.993Z,26.89
2018-08-23T21:17:56.550Z,26.88
2018-08-23T21:20:25.001Z,26.87
2018-08-23T21:22:53.553Z,26.88
2018-08-23T21:25:22.066Z,26.87
2018-08-23T21:27:50.595Z,26.86
2018-08-23T21:30:19.134Z,26.87
2018-08-23T21:32:48.513Z,26.85
2018-08-23T21:35:17.044Z,26.84
2018-08-23T21:37:45.655Z,26.83
2018-08-23T21:40:14.751Z,26.83
2018-08-23T21:42:58.150Z,26.83
2018-08-23T21:45:26.923Z,26.82
2018-08-23T21:47:55.432Z,26.82
2018-08-23T21:50:24.125Z,26.82
2018-08-23T21:52:52.910Z,26.82
2018-08-23T21:55:25.931Z,26.80
2018-08-23T21:57:55.460Z,26.79
2018-08-23T22:00:24.256Z,26.79
2018-08-23T22:02:52.759Z,26.79
2018-08-23T22:05:21.252Z,26.78
2018-08-23T22:07:49.748Z,26.78
2018-08-23T22:10:18.242Z,26.79
2018-08-23T22:12:46.771Z,26.77
2018-08-23T22:15:15.385Z,26.78
2018-08-23T22:17:43.955Z,26.78
2018-08-23T22:20:12.435Z,26.77
2018-08-23T22:22:40.923Z,26.78
2018-08-23T22:25:09.393Z,26.77
2018-08-23T22:27:38.023Z,26.77
2018-08-23T22:30:07.227Z,26.76
2018-08-23T22:32:35.715Z,26.75
2018-08-23T22:35:04.445Z,26.76
2018-08-23T22:37:33.099Z,26.76
2018-08-23T22:40:01.602Z,26.75
2018-08-23T22:42:30.468Z,26.75
2018-08-23T22:44:58.997Z,26.75
2018-08-23T22:47:27.491Z,26.75
2018-08-23T22:49:56.021Z,26.75
2018-08-23T22:52:24.520Z,26.75
2018-08-23T22:54:53.039Z,26.74
2018-08-23T22:57:21.578Z,26.74
2018-08-23T22:59:50.059Z,26.73
2018-08-23T23:02:23.767Z,26.75
2018-08-23T23:04:52.301Z,26.73
2018-08-23T23:07:21.035Z,26.73
2018-08-23T23:09:49.644Z,26.74
2018-08-23T23:12:18.123Z,26.74
2018-08-23T23:14:46.607Z,26.73
2018-08-23T23:17:15.419Z,26.74
2018-08-23T23:19:44.050Z,26.72
2018-08-23T23:22:12.560Z,26.72
2018-08-23T23:24:46.623Z,26.72
2018-08-23T23:27:15.166Z,26.72
2018-08-23T23:29:43.622Z,26.72
2018-08-23T23:32:12.115Z,26.64
2018-08-23T23:34:40.638Z,26.71
2018-08-23T23:37:09.118Z,26.71
2018-08-23T23:39:37.612Z,26.71
2018-08-23T23:42:06.170Z,26.71
2018-08-23T23:44:34.702Z,26.70
2018-08-23T23:47:03.334Z,26.70
2018-08-23T23:49:31.824Z,26.70
2018-08-23T23:52:00.324Z,26.71
2018-08-23T23:54:28.853Z,26.70
2018-08-23T23:56:57.366Z,26.70
2018-08-23T23:59:25.855Z,26.71
